Time;durP1;ratioP1;P1;durP2;ratioP2;P2;SDS_P1;SDS_P2;PMS_P1;PMS_P2;Temp;Humidity;BMP_temperature;BMP_pressure;BME280_temperature;BME280_humidity;BME280_pressure;Samples;Min_cycle;Max_cycle;Signal;HPM_P1;HPM_P2
2022/04/15 00:00:24;;;;;;;11.32;6.78;;;;;;;14.40;61.99;99652.41;5190834;28;20049;-72
2022/04/15 00:03:14;;;;;;;13.15;6.75;;;;;;;14.34;61.77;99653.03;5196757;28;20140;-72
2022/04/15 00:06:08;;;;;;;9.75;6.22;;;;;;;14.30;61.87;99659.63;5202992;28;20048;-72
2022/04/15 00:08:59;;;;;;;10.48;6.25;;;;;;;14.20;62.40;99653.53;5203625;28;20072;-72
2022/04/15 00:11:49;;;;;;;12.95;6.15;;;;;;;14.20;62.23;99662.38;5188597;28;20088;-72
2022/04/15 00:14:39;;;;;;;10.02;6.53;;;;;;;14.16;62.67;99670.84;5203618;28;20187;-72
2022/04/15 00:17:30;;;;;;;12.07;6.82;;;;;;;14.34;63.13;99672.53;5203638;28;20056;-72
2022/04/15 00:20:20;;;;;;;8.40;5.85;;;;;;;14.26;63.06;99667.09;5187013;28;20045;-72
2022/04/15 00:23:10;;;;;;;8.52;6.32;;;;;;;14.25;62.97;99660.09;5203474;28;20057;-72
2022/04/15 00:26:01;;;;;;;12.95;6.30;;;;;;;14.10;62.96;99664.25;5202772;28;20530;-72
2022/04/15 00:28:52;;;;;;;13.95;6.93;;;;;;;14.04;63.04;99663.06;5201425;28;20052;-72
2022/04/15 00:31:42;;;;;;;10.68;6.43;;;;;;;13.93;63.49;99655.25;5202691;28;20167;-72
2022/04/15 00:34:34;;;;;;;13.95;7.35;;;;;;;13.95;63.56;99671.09;5173626;28;20096;-72
2022/04/15 00:37:24;;;;;;;13.45;6.72;;;;;;;13.84;63.50;99672.13;5203108;28;20432;-72
2022/04/15 00:40:15;;;;;;;11.93;7.18;;;;;;;13.99;63.28;99656.50;5203230;28;20050;-72
2022/04/15 00:43:05;;;;;;;14.45;6.85;;;;;;;13.92;63.45;99656.25;5203115;28;20049;-72
2022/04/15 00:46:05;;;;;;;9.15;6.43;;;;;;;13.94;63.46;99659.59;5187544;28;20150;-72
2022/04/15 00:48:55;;;;;;;10.80;5.93;;;;;;;13.69;63.92;99660.28;5181715;28;20096;-72
2022/04/15 00:51:51;;;;;;;14.90;7.22;;;;;;;13.57;64.42;99662.28;5196602;28;20422;-72
2022/04/15 00:54:42;;;;;;;10.05;6.50;;;;;;;13.42;64.14;99645.13;5202618;28;20056;-72
2022/04/15 00:57:34;;;;;;;9.32;6.13;;;;;;;13.51;64.17;99666.41;5187759;28;20049;-72
2022/04/15 01:00:26;;;;;;;8.70;6.13;;;;;;;13.54;64.42;99651.94;5204448;28;20053;-72
2022/04/15 01:03:17;;;;;;;7.15;6.03;;;;;;;13.55;64.65;99645.63;5214427;28;20423;-72
2022/04/15 01:06:10;;;;;;;11.02;6.40;;;;;;;13.66;64.38;99665.91;5202226;28;20061;-72
2022/04/15 01:09:02;;;;;;;12.15;6.18;;;;;;;13.69;64.55;99661.13;5197765;28;20538;-72
2022/04/15 01:11:53;;;;;;;10.75;6.30;;;;;;;13.72;64.32;99676.00;5203343;28;20059;-72
2022/04/15 01:14:45;;;;;;;10.65;6.45;;;;;;;13.53;64.49;99675.06;5202665;28;20067;-72
2022/04/15 01:17:36;;;;;;;8.93;5.68;;;;;;;13.47;64.58;99664.16;5202666;28;20415;-72
2022/04/15 01:20:27;;;;;;;11.32;6.75;;;;;;;13.89;64.48;99682.38;5201772;28;20554;-72
2022/04/15 01:23:18;;;;;;;9.70;7.13;;;;;;;13.76;64.81;99664.03;5202689;28;20045;-72
2022/04/15 01:26:09;;;;;;;10.15;6.30;;;;;;;13.66;64.79;99672.09;5201921;28;20140;-72
2022/04/15 01:28:59;;;;;;;10.23;6.43;;;;;;;13.52;64.61;99659.25;5202554;28;20053;-72
2022/04/15 01:31:49;;;;;;;9.63;6.03;;;;;;;13.48;64.51;99681.84;5201529;28;20104;-72
2022/04/15 01:34:40;;;;;;;9.15;5.78;;;;;;;13.48;63.65;99680.03;5202234;28;20061;-72
2022/04/15 01:37:30;;;;;;;9.07;5.70;;;;;;;13.36;64.56;99665.19;5202145;28;20072;-72
2022/04/15 01:40:20;;;;;;;9.43;6.22;;;;;;;13.35;65.05;99655.53;5202172;28;20135;-72
2022/04/15 01:43:10;;;;;;;14.65;6.97;;;;;;;13.44;65.97;99680.44;5198189;28;20131;-72
2022/04/15 01:46:00;;;;;;;13.30;6.75;;;;;;;13.34;65.78;99669.81;5201829;28;20114;-72
2022/04/15 01:48:51;;;;;;;12.43;7.05;;;;;;;13.44;65.33;99675.94;5201643;28;20156;-72
2022/04/15 01:51:41;;;;;;;12.95;6.53;;;;;;;13.30;65.68;99681.75;5187179;28;20057;-72
2022/04/15 01:54:32;;;;;;;12.07;6.68;;;;;;;13.21;65.30;99674.56;5201875;28;20056;-71
2022/04/15 01:57:22;;;;;;;10.20;7.00;;;;;;;13.32;65.74;99685.13;5199527;28;20052;-72
2022/04/15 02:00:12;;;;;;;11.77;7.18;;;;;;;13.32;65.72;99675.28;5186877;28;20495;-71
2022/04/15 02:03:02;;;;;;;14.52;7.13;;;;;;;13.42;65.45;99680.59;5202364;28;20054;-71
2022/04/15 02:05:53;;;;;;;11.45;7.05;;;;;;;13.19;65.32;99695.22;5201133;28;20092;-72
2022/04/15 02:08:43;;;;;;;10.85;6.82;;;;;;;12.95;65.45;99659.25;5202241;28;20055;-72
2022/04/15 02:11:34;;;;;;;13.90;7.15;;;;;;;13.02;65.44;99668.34;5201802;28;20056;-72
2022/04/15 02:14:24;;;;;;;13.77;6.55;;;;;;;12.91;65.44;99661.34;5201562;28;20504;-72
2022/04/15 02:17:14;;;;;;;9.27;6.20;;;;;;;12.93;65.85;99671.84;5203482;28;20049;-72
2022/04/15 02:20:05;;;;;;;10.15;6.10;;;;;;;12.69;65.67;99667.81;5202361;28;20103;-71
2022/04/15 02:22:55;;;;;;;12.32;5.95;;;;;;;12.74;65.46;99679.84;5202526;28;20511;-72
2022/04/15 02:25:46;;;;;;;12.00;6.00;;;;;;;12.74;65.20;99683.34;5187481;28;20089;-72
2022/04/15 02:28:36;;;;;;;11.23;6.22;;;;;;;12.65;65.67;99693.00;5186987;28;20487;-72
2022/04/15 02:31:26;;;;;;;8.93;6.72;;;;;;;12.54;65.37;99682.50;5202146;28;20132;-72
2022/04/15 02:34:16;;;;;;;9.40;5.70;;;;;;;12.19;65.20;99662.59;5201876;28;20056;-72
2022/04/15 02:37:06;;;;;;;9.90;6.28;;;;;;;12.36;65.55;99689.50;5201981;28;20551;-72
2022/04/15 02:39:56;;;;;;;13.75;6.95;;;;;;;12.48;66.06;99698.16;5201725;28;20076;-71
2022/04/15 02:42:46;;;;;;;10.95;6.85;;;;;;;12.31;65.42;99689.06;5202269;28;20119;-72
2022/04/15 02:45:42;;;;;;;12.50;7.72;;;;;;;12.20;65.66;99693.53;5205345;28;20211;-72
2022/04/15 02:48:33;;;;;;;13.13;7.15;;;;;;;12.03;65.09;99672.91;5205403;28;20052;-72
2022/04/15 02:51:23;;;;;;;10.77;6.90;;;;;;;12.13;65.87;99699.53;5205141;28;20052;-72
2022/04/15 02:54:13;;;;;;;19.25;7.32;;;;;;;12.39;66.57;99690.06;5205236;28;20049;-72
2022/04/15 02:57:04;;;;;;;12.23;7.70;;;;;;;12.39;66.08;99705.19;5205472;28;20534;-72
2022/04/15 02:59:54;;;;;;;13.88;8.32;;;;;;;12.39;66.17;99700.69;5205805;28;20071;-71
2022/04/15 03:02:44;;;;;;;13.38;7.72;;;;;;;12.39;66.29;99702.53;5205178;28;20458;-71
2022/04/15 03:05:34;;;;;;;16.25;7.93;;;;;;;12.37;66.45;99699.16;5176150;28;20053;-73
2022/04/15 03:08:24;;;;;;;13.82;8.20;;;;;;;12.24;66.72;99680.78;5205303;28;20050;-73
2022/04/15 03:11:14;;;;;;;14.95;7.50;;;;;;;12.17;65.90;99684.97;5204995;28;20436;-74
2022/04/15 03:14:05;;;;;;;13.15;7.32;;;;;;;11.99;66.24;99682.16;5204944;28;20092;-73
2022/04/15 03:16:56;;;;;;;12.90;7.50;;;;;;;11.87;66.14;99691.19;5169602;28;20558;-72
2022/04/15 03:19:46;;;;;;;13.38;7.10;;;;;;;11.72;68.21;99696.88;5196683;28;20056;-73
2022/04/15 03:22:37;;;;;;;11.48;6.95;;;;;;;11.85;66.58;99685.16;5189729;28;20108;-74
2022/04/15 03:25:28;;;;;;;10.40;7.05;;;;;;;11.91;67.13;99700.56;5204517;28;20422;-72
2022/04/15 03:28:19;;;;;;;14.50;7.72;;;;;;;11.95;67.10;99691.34;5204782;28;20045;-72
2022/04/15 03:31:10;;;;;;;14.32;7.63;;;;;;;11.87;67.20;99699.16;5189801;28;20701;-74
2022/04/15 03:34:02;;;;;;;15.32;7.82;;;;;;;11.73;67.72;99705.66;5189880;28;20056;-74
2022/04/15 03:36:52;;;;;;;13.52;7.80;;;;;;;11.84;67.56;99710.03;5189786;28;20050;-72
2022/04/15 03:39:42;;;;;;;11.38;7.35;;;;;;;11.82;67.24;99712.84;5189596;28;20504;-74
2022/04/15 03:42:48;;;;;;;15.70;7.85;;;;;;;11.74;67.32;99710.84;5204673;28;20100;-73
2022/04/15 03:45:38;;;;;;;11.93;7.93;;;;;;;11.36;67.32;99674.34;5203321;28;20122;-73
2022/04/15 03:48:28;;;;;;;10.65;7.25;;;;;;;11.43;67.47;99698.53;5169121;28;20059;-74
2022/04/15 03:51:18;;;;;;;14.68;8.02;;;;;;;11.46;67.68;99711.56;5183833;28;20127;-72
2022/04/15 03:54:08;;;;;;;11.57;8.15;;;;;;;11.42;68.09;99708.31;5185723;28;20061;-74
2022/04/15 03:56:58;;;;;;;13.10;8.10;;;;;;;11.38;68.47;99717.50;5203952;28;20129;-73
2022/04/15 03:59:48;;;;;;;15.23;8.82;;;;;;;11.61;66.89;99704.91;5204505;28;20534;-73
2022/04/15 04:02:38;;;;;;;12.70;8.18;;;;;;;11.61;67.13;99712.03;5204294;28;20057;-73
2022/04/15 04:05:28;;;;;;;12.52;7.68;;;;;;;11.37;67.53;99688.44;5189167;28;20192;-75
2022/04/15 04:08:19;;;;;;;16.17;8.90;;;;;;;11.36;67.70;99711.50;5172492;28;20054;-74
2022/04/15 04:11:09;;;;;;;14.48;8.88;;;;;;;11.35;67.36;99711.63;5189193;28;20504;-72
2022/04/15 04:13:59;;;;;;;15.95;8.68;;;;;;;11.21;67.13;99707.50;5204644;28;20445;-73
2022/04/15 04:16:49;;;;;;;12.45;7.72;;;;;;;11.07;67.03;99710.47;5203984;28;20251;-73
2022/04/15 04:19:39;;;;;;;12.75;8.00;;;;;;;11.10;67.28;99724.34;5203842;22;20070;-75
2022/04/15 04:22:31;;;;;;;12.27;8.32;;;;;;;10.83;67.00;99700.97;5162953;28;20085;-75
2022/04/15 04:25:21;;;;;;;14.60;8.73;;;;;;;10.90;66.60;99726.00;5142790;28;20058;-75
2022/04/15 04:28:11;;;;;;;11.57;7.57;;;;;;;10.88;67.32;99724.44;5142555;28;20051;-75
2022/04/15 04:31:01;;;;;;;14.77;8.30;;;;;;;10.89;68.10;99715.50;5108023;29;20062;-76
2022/04/15 04:33:51;;;;;;;15.00;9.50;;;;;;;10.91;68.21;99732.97;5126601;28;20053;-76
2022/04/15 04:36:42;;;;;;;13.48;8.73;;;;;;;10.88;68.04;99741.19;5140773;28;20096;-75
2022/04/15 04:39:33;;;;;;;19.48;8.98;;;;;;;10.73;69.19;99711.50;5142865;28;20058;-75
2022/04/15 04:42:24;;;;;;;16.70;8.85;;;;;;;10.74;68.55;99734.38;5142330;28;20768;-75
2022/04/15 04:45:14;;;;;;;12.55;8.10;;;;;;;10.78;67.13;99741.13;5142229;28;20058;-75
2022/04/15 04:48:05;;;;;;;13.75;7.85;;;;;;;10.61;67.50;99719.63;5141944;28;20069;-75
2022/04/15 04:50:55;;;;;;;11.80;8.77;;;;;;;10.91;68.10;99753.38;5142309;28;20061;-74
2022/04/15 04:53:45;;;;;;;15.18;9.73;;;;;;;10.92;68.78;99755.88;5141729;28;20464;-74
2022/04/15 04:56:35;;;;;;;18.88;10.50;;;;;;;10.94;69.36;99758.44;5141952;28;20053;-74
2022/04/15 04:59:28;;;;;;;17.35;9.40;;;;;;;10.86;69.13;99763.50;5142706;28;20061;-74
2022/04/15 05:02:18;;;;;;;15.63;9.52;;;;;;;10.89;68.08;99764.09;5141933;28;20062;-74
2022/04/15 05:05:09;;;;;;;14.73;9.80;;;;;;;10.94;68.14;99764.56;5120145;28;20520;-74
2022/04/15 05:08:00;;;;;;;18.42;9.38;;;;;;;10.90;68.61;99764.97;5138732;28;20061;-74
2022/04/15 05:10:50;;;;;;;15.35;9.55;;;;;;;10.98;68.77;99763.34;5140693;28;20149;-74
2022/04/15 05:13:40;;;;;;;14.57;8.65;;;;;;;10.90;67.65;99747.22;5142014;28;20051;-74
2022/04/15 05:16:30;;;;;;;14.18;8.98;;;;;;;11.03;66.89;99779.72;5141783;28;20046;-74
2022/04/15 05:19:20;;;;;;;12.55;7.93;;;;;;;11.11;67.33;99779.09;5127279;28;20073;-74
2022/04/15 05:22:11;;;;;;;12.90;8.88;;;;;;;11.18;66.82;99784.72;5144079;28;20109;-74
2022/04/15 05:25:02;;;;;;;10.55;7.72;;;;;;;11.18;66.30;99785.56;5146120;28;20527;-74
2022/04/15 05:27:52;;;;;;;17.27;8.88;;;;;;;11.10;68.58;99771.28;5143304;28;20050;-74
2022/04/15 05:30:42;;;;;;;15.40;10.02;;;;;;;11.35;67.71;99789.44;5141608;28;20061;-75
2022/04/15 05:33:33;;;;;;;20.52;9.07;;;;;;;11.34;67.82;99793.09;5138858;28;20121;-75
2022/04/15 05:36:23;;;;;;;14.73;8.30;;;;;;;11.41;68.15;99790.75;5141736;28;20050;-74
2022/04/15 05:39:13;;;;;;;16.33;8.55;;;;;;;11.49;66.56;99798.94;5141968;28;20420;-74
2022/04/15 05:42:04;;;;;;;12.50;8.23;;;;;;;11.57;66.29;99801.78;5127569;28;20506;-74
2022/04/15 05:44:54;;;;;;;14.13;7.97;;;;;;;11.61;67.52;99797.88;5141988;28;20050;-74
2022/04/15 05:47:44;;;;;;;12.15;7.93;;;;;;;11.64;66.41;99787.00;5141561;28;20058;-74
2022/04/15 05:50:35;;;;;;;23.13;8.80;;;;;;;11.76;67.49;99798.38;5141810;28;20058;-75
2022/04/15 05:53:25;;;;;;;18.08;9.18;;;;;;;11.76;68.66;99793.06;5127357;28;20062;-75
2022/04/15 05:56:15;;;;;;;18.88;9.43;;;;;;;11.89;67.76;99807.03;5141425;28;20149;-74
2022/04/15 05:59:05;;;;;;;16.17;8.75;;;;;;;11.92;67.69;99805.88;5127388;28;20059;-74
2022/04/15 06:01:55;;;;;;;14.35;8.77;;;;;;;11.93;68.77;99800.47;5141579;28;20070;-74
2022/04/15 06:04:45;;;;;;;16.88;9.00;;;;;;;12.20;68.79;99810.50;5142017;28;20086;-74
2022/04/15 06:07:35;;;;;;;14.85;9.10;;;;;;;12.18;69.08;99812.44;5141403;28;20054;-74
2022/04/15 06:10:26;;;;;;;25.40;10.50;;;;;;;12.54;68.08;99823.47;5141169;28;20139;-74
2022/04/15 06:13:19;;;;;;;16.88;9.10;;;;;;;12.50;67.63;99816.75;5141759;28;20109;-74
2022/04/15 06:16:10;;;;;;;14.27;8.93;;;;;;;12.46;67.50;99816.19;5140473;28;20051;-74
2022/04/15 06:19:00;;;;;;;14.88;9.35;;;;;;;12.43;67.32;99800.50;5130170;28;20047;-76
2022/04/15 06:22:11;;;;;;;17.05;9.20;;;;;;;12.60;67.63;99809.63;5125201;29;20055;-75
2022/04/15 06:25:00;;;;;;;19.52;10.10;;;;;;;12.79;67.51;99806.19;5125260;29;20062;-75
2022/04/15 06:27:51;;;;;;;18.77;9.50;;;;;;;13.02;67.36;99830.72;5138375;28;20061;-75
2022/04/15 06:30:41;;;;;;;19.30;10.10;;;;;;;13.02;67.98;99817.41;5145285;28;20061;-74
2022/04/15 06:33:31;;;;;;;18.63;10.30;;;;;;;13.11;67.11;99823.69;5133735;28;20428;-75
2022/04/15 06:36:21;;;;;;;20.38;10.10;;;;;;;13.33;67.23;99833.28;5142067;28;20055;-75
2022/04/15 06:39:11;;;;;;;14.95;9.63;;;;;;;13.10;67.67;99816.69;5142611;28;20506;-76
2022/04/15 06:42:01;;;;;;;15.88;10.60;;;;;;;13.39;66.91;99835.38;5139339;28;20424;-76
2022/04/15 06:44:52;;;;;;;17.35;10.70;;;;;;;13.34;66.72;99818.97;5131646;28;20053;-76
2022/04/15 06:47:42;;;;;;;17.83;11.25;;;;;;;13.31;66.29;99801.47;5142141;28;20517;-74
2022/04/15 06:50:32;;;;;;;18.92;10.85;;;;;;;13.43;66.99;99828.78;5144232;28;20055;-75
2022/04/15 06:53:24;;;;;;;18.27;11.48;;;;;;;13.38;66.79;99829.22;5135252;28;20047;-72
2022/04/15 06:56:15;;;;;;;16.83;11.63;;;;;;;13.69;66.45;99838.84;5140030;28;20058;-72
2022/04/15 06:59:05;;;;;;;25.63;11.93;;;;;;;13.92;65.95;99842.03;5135870;28;20086;-72
2022/04/15 07:01:55;;;;;;;17.13;11.18;;;;;;;13.79;66.29;99839.66;5126965;28;20182;-70
2022/04/15 07:04:45;;;;;;;18.88;11.73;;;;;;;14.22;65.09;99827.59;5139491;28;20049;-71
2022/04/15 07:07:36;;;;;;;18.85;11.55;;;;;;;14.39;64.40;99828.66;5127197;28;20064;-72
2022/04/15 07:10:26;;;;;;;21.25;11.70;;;;;;;14.59;63.71;99832.94;5143202;28;20050;-73
2022/04/15 07:13:16;;;;;;;18.13;11.02;;;;;;;14.73;63.76;99831.56;5143599;28;20101;-74
2022/04/15 07:16:07;;;;;;;18.02;11.50;;;;;;;15.12;63.24;99834.81;5125932;28;20053;-73
2022/04/15 07:18:57;;;;;;;20.95;11.23;;;;;;;15.71;61.10;99821.81;5144539;28;20409;-74
2022/04/15 07:21:48;;;;;;;19.98;11.98;;;;;;;16.62;59.01;99826.63;5141078;28;20058;-73
2022/04/15 07:24:38;;;;;;;17.73;11.00;;;;;;;16.57;59.23;99832.47;5133221;28;20054;-73
2022/04/15 07:27:28;;;;;;;18.20;11.88;;;;;;;16.62;58.53;99814.09;5140275;28;20461;-71
2022/04/15 07:30:19;;;;;;;19.13;12.02;;;;;;;17.11;59.25;99830.28;5129234;28;20703;-73
2022/04/15 07:33:08;;;;;;;22.80;10.63;;;;;;;17.56;56.16;99787.91;5144375;28;20116;-74
2022/04/15 07:35:59;;;;;;;17.40;10.88;;;;;;;18.23;55.66;99828.69;5131145;28;20066;-74
2022/04/15 07:38:55;;;;;;;22.20;13.05;;;;;;;18.36;53.27;99827.31;5124068;29;20090;-74
2022/04/15 07:41:45;;;;;;;18.20;11.02;;;;;;;19.01;51.55;99827.03;5133483;28;20101;-73
2022/04/15 07:44:35;;;;;;;16.80;10.02;;;;;;;18.86;52.49;99837.69;5142533;28;20058;-74
2022/04/15 07:47:26;;;;;;;18.80;11.73;;;;;;;19.37;51.21;99838.03;5141092;28;20047;-74
2022/04/15 07:50:36;;;;;;;18.88;11.77;;;;;;;20.04;49.41;99839.13;5134704;28;20102;-74
2022/04/15 07:53:27;;;;;;;19.05;12.10;;;;;;;20.76;47.92;99825.84;5133384;28;20065;-74
2022/04/15 07:56:17;;;;;;;19.50;11.55;;;;;;;20.23;49.29;99837.72;5128830;28;20053;-74
2022/04/15 07:59:07;;;;;;;17.45;11.20;;;;;;;20.08;49.40;99835.88;5124063;28;20133;-73
2022/04/15 08:01:58;;;;;;;21.05;11.48;;;;;;;21.02;47.01;99822.56;5123546;29;20445;-72
2022/04/15 08:04:48;;;;;;;18.73;11.07;;;;;;;19.93;48.88;99826.94;5128466;28;20058;-74
2022/04/15 08:07:39;;;;;;;23.05;11.63;;;;;;;21.62;48.58;99833.97;5134884;28;20540;-72
2022/04/15 08:10:29;;;;;;;17.90;11.20;;;;;;;21.80;46.10;99830.78;5135034;28;20051;-73
2022/04/15 08:13:19;;;;;;;17.02;10.98;;;;;;;22.00;45.33;99839.88;5139204;28;20200;-72
2022/04/15 08:16:11;;;;;;;18.38;10.35;;;;;;;22.30;46.10;99823.47;5135922;28;20112;-74
2022/04/15 08:19:02;;;;;;;18.83;11.40;;;;;;;22.14;44.46;99840.78;5141672;28;20071;-73
2022/04/15 08:21:53;;;;;;;15.88;10.27;;;;;;;22.14;45.36;99832.69;5135205;28;20524;-73
2022/04/15 08:24:45;;;;;;;14.25;10.05;;;;;;;22.81;44.72;99839.25;5119000;28;20105;-73
2022/04/15 08:27:35;;;;;;;14.30;10.43;;;;;;;23.04;43.39;99843.53;5132312;28;20543;-76
2022/04/15 08:30:25;;;;;;;16.63;11.55;;;;;;;23.43;42.83;99848.19;5129140;28;20141;-73
2022/04/15 08:33:15;;;;;;;17.80;12.30;;;;;;;22.74;43.71;99841.13;5122285;28;20062;-75
2022/04/15 08:36:05;;;;;;;18.23;13.18;;;;;;;21.88;41.93;99825.22;5132713;28;20058;-73
2022/04/15 08:38:55;;;;;;;17.75;13.13;;;;;;;21.52;45.42;99841.56;5118605;28;20062;-76
2022/04/15 08:41:46;;;;;;;19.75;13.48;;;;;;;21.71;45.69;99840.06;5134883;28;20057;-74
2022/04/15 08:44:36;;;;;;;19.17;14.00;;;;;;;21.97;44.86;99842.13;5136375;28;20165;-74
2022/04/15 08:47:29;;;;;;;24.17;15.02;;;;;;;22.28;44.37;99844.41;5140179;28;20102;-75
2022/04/15 08:50:21;;;;;;;19.30;14.80;;;;;;;22.72;43.54;99846.72;5140517;28;20578;-74
2022/04/15 08:53:14;;;;;;;20.50;14.45;;;;;;;20.98;44.51;99832.06;5138381;28;20054;-76
2022/04/15 08:56:05;;;;;;;22.77;14.30;;;;;;;21.79;45.55;99839.94;5140588;28;20050;-74
2022/04/15 08:58:56;;;;;;;23.90;15.73;;;;;;;21.22;43.96;99830.88;5140643;28;20090;-74
2022/04/15 09:01:46;;;;;;;17.95;13.90;;;;;;;21.92;44.96;99861.63;5125243;28;20682;-74
2022/04/15 09:04:36;;;;;;;19.70;13.95;;;;;;;21.02;45.40;99851.41;5136740;28;20113;-74
2022/04/15 09:07:32;;;;;;;20.70;13.63;;;;;;;22.37;43.87;99855.91;5137165;28;20066;-74
2022/04/15 09:10:26;;;;;;;20.90;14.85;;;;;;;20.79;45.94;99854.25;5122690;28;20137;-75
2022/04/15 09:13:22;;;;;;;17.90;14.30;;;;;;;21.62;46.24;99849.31;5136119;28;20185;-78
2022/04/15 09:16:17;;;;;;;19.45;13.27;;;;;;;20.28;47.27;99854.19;5137646;28;20078;-77
2022/04/15 09:19:09;;;;;;;19.50;14.48;;;;;;;20.52;48.23;99863.84;5135207;28;20192;-74
2022/04/15 09:22:00;;;;;;;23.48;16.00;;;;;;;21.77;45.53;99850.91;5131444;28;20149;-78
2022/04/15 09:24:51;;;;;;;22.05;15.35;;;;;;;22.57;43.40;99864.13;5135690;28;20118;-76
2022/04/15 09:27:41;;;;;;;21.73;14.43;;;;;;;20.96;45.51;99850.31;5123397;28;20054;-76
2022/04/15 09:30:36;;;;;;;20.80;14.32;;;;;;;21.90;46.86;99858.28;5138215;28;20066;-76
2022/04/15 09:33:26;;;;;;;22.30;16.15;;;;;;;21.60;44.82;99864.88;5125603;28;20437;-76
2022/04/15 09:36:29;;;;;;;23.80;16.25;;;;;;;22.43;43.10;99863.22;5137364;28;20046;-76
2022/04/15 09:39:19;;;;;;;22.00;15.75;;;;;;;22.71;42.60;99855.03;5137559;28;20777;-76
2022/04/15 09:42:13;;;;;;;18.17;13.85;;;;;;;22.67;44.20;99854.59;5138670;28;20054;-76
2022/04/15 09:45:17;;;;;;;20.63;16.02;;;;;;;23.06;44.88;99852.28;5123860;28;20096;-74
2022/04/15 09:48:08;;;;;;;23.30;16.67;;;;;;;21.22;45.38;99854.31;5132010;28;20055;-75
2022/04/15 09:50:59;;;;;;;23.40;15.90;;;;;;;21.84;43.61;99859.06;5136814;28;20528;-75
2022/04/15 09:53:51;;;;;;;19.98;15.38;;;;;;;23.63;42.44;99849.03;5126307;28;20062;-76
2022/04/15 09:56:43;;;;;;;22.30;16.05;;;;;;;23.36;41.54;99844.63;5139935;28;20417;-74
2022/04/15 09:59:33;;;;;;;23.85;15.63;;;;;;;22.64;40.53;99846.06;5141161;28;20045;-74
2022/04/15 10:02:24;;;;;;;28.98;16.05;;;;;;;23.42;39.91;99849.22;5139732;28;20185;-73
2022/04/15 10:05:15;;;;;;;25.50;17.80;;;;;;;22.31;43.91;99849.44;5139446;28;20150;-72
2022/04/15 10:08:08;;;;;;;21.60;15.27;;;;;;;23.41;38.54;99843.00;5125306;28;20558;-72
2022/04/15 10:10:58;;;;;;;22.33;16.23;;;;;;;23.10;42.39;99848.13;5138954;28;20069;-71
2022/04/15 10:13:49;;;;;;;23.90;16.15;;;;;;;23.64;41.06;99849.84;5135916;28;20054;-72
2022/04/15 10:16:40;;;;;;;21.58;16.02;;;;;;;23.96;39.91;99842.78;5136595;28;20054;-74
2022/04/15 10:19:32;;;;;;;21.52;15.10;;;;;;;23.83;38.64;99848.22;5132196;28;20057;-73
2022/04/15 10:22:23;;;;;;;21.70;14.82;;;;;;;23.17;38.57;99833.56;5196015;23;20069;-75
2022/04/15 10:25:14;;;;;;;22.17;12.27;;;;;;;23.48;37.12;99844.84;5183000;28;20054;-75
2022/04/15 10:28:04;;;;;;;20.17;14.57;;;;;;;23.89;36.83;99842.81;5169193;28;20056;-75
2022/04/15 10:31:14;;;;;;;19.95;12.50;;;;;;;24.07;37.39;99833.19;5181133;28;20436;-76
2022/04/15 10:34:09;;;;;;;18.55;11.95;;;;;;;23.18;36.34;99831.72;5149068;28;20065;-75
2022/04/15 10:36:59;;;;;;;19.50;13.10;;;;;;;23.84;38.29;99834.50;5164855;28;20112;-75
2022/04/15 10:39:50;;;;;;;21.33;13.73;;;;;;;21.50;38.38;99820.16;5160134;28;20060;-74
2022/04/15 10:42:43;;;;;;;18.30;13.10;;;;;;;20.93;42.09;99815.66;5163856;28;20054;-75
2022/04/15 10:45:37;;;;;;;21.60;13.88;;;;;;;22.07;40.45;99839.06;5156559;28;20050;-73
2022/04/15 10:48:31;;;;;;;23.33;14.80;;;;;;;22.25;40.38;99839.41;5139746;28;20428;-75
2022/04/15 10:51:24;;;;;;;20.48;14.80;;;;;;;22.36;39.52;99827.22;5146511;28;20100;-73
2022/04/15 10:54:42;;;;;;;22.23;14.85;;;;;;;20.91;41.27;99820.38;5163597;28;20053;-73
2022/04/15 10:57:37;;;;;;;22.50;13.63;;;;;;;20.94;43.17;99833.50;5139413;28;20053;-74
2022/04/15 11:03:36;;;;;;;20.58;13.85;;;;;;;22.11;41.67;99824.97;5161977;28;20049;-72
2022/04/15 11:06:28;;;;;;;17.80;12.00;;;;;;;22.93;39.68;99826.84;5164502;28;20402;-76
2022/04/15 11:09:24;;;;;;;17.45;13.65;;;;;;;22.47;40.58;99832.06;5162075;28;20042;-74
2022/04/15 11:12:28;;;;;;;22.42;12.82;;;;;;;21.97;40.11;99832.16;5161427;28;20051;-76
2022/04/15 11:15:54;;;;;;;17.33;10.48;;;;;;;22.17;38.49;99828.78;5145782;28;20188;-76
2022/04/15 11:18:48;;;;;;;17.67;11.10;;;;;;;21.59;40.54;99826.28;5163145;28;20500;-75
2022/04/15 11:21:50;;;;;;;15.88;11.13;;;;;;;20.29;40.98;99816.28;5160790;28;20497;-73
2022/04/15 11:24:41;;;;;;;16.83;10.45;;;;;;;21.22;40.14;99816.53;5161528;28;20827;-70
2022/04/15 11:27:39;;;;;;;23.92;11.93;;;;;;;20.84;41.09;99814.91;5159986;28;20396;-74
2022/04/15 11:30:29;;;;;;;17.05;10.63;;;;;;;21.47;41.77;99820.56;5131380;28;20093;-74
2022/04/15 11:33:20;;;;;;;17.42;12.40;;;;;;;21.23;40.28;99802.06;5147792;28;20054;-74
2022/04/15 11:36:10;;;;;;;16.20;10.65;;;;;;;20.71;40.66;99808.56;5159619;28;20080;-73
2022/04/15 11:39:03;;;;;;;18.98;10.07;;;;;;;22.18;40.56;99806.13;5147037;28;20431;-73
2022/04/15 11:41:57;;;;;;;15.82;10.15;;;;;;;22.92;41.08;99808.13;5146787;28;21414;-73
2022/04/15 11:44:47;;;;;;;13.63;9.90;;;;;;;22.57;37.82;99793.84;5160249;28;20597;-71
2022/04/15 11:47:37;;;;;;;16.20;10.30;;;;;;;22.14;38.90;99799.44;5158434;28;20061;-73
2022/04/15 11:50:28;;;;;;;15.60;10.48;;;;;;;22.55;40.21;99793.22;5161509;28;20066;-73
2022/04/15 11:53:19;;;;;;;13.52;8.77;;;;;;;23.45;39.69;99790.09;5161815;28;20088;-72
2022/04/15 11:56:09;;;;;;;14.35;9.20;;;;;;;23.21;38.05;99780.72;5161511;28;20185;-72
2022/04/15 11:58:59;;;;;;;13.35;8.25;;;;;;;20.16;40.98;99795.41;5162194;28;20038;-72
2022/04/15 12:01:49;;;;;;;12.40;6.75;;;;;;;20.66;41.04;99790.25;5160542;28;20377;-73
2022/04/15 12:04:58;;;;;;;9.10;5.70;;;;;;;21.44;37.70;99785.88;5158559;28;20053;-73
2022/04/15 12:07:51;;;;;;;11.07;4.65;;;;;;;21.43;37.27;99780.69;5163208;28;20060;-72
2022/04/15 12:10:42;;;;;;;7.93;4.47;;;;;;;21.13;39.40;99786.19;5164132;28;20053;-72
2022/04/15 12:13:33;;;;;;;8.40;5.50;;;;;;;22.00;37.03;99780.47;5163685;28;20064;-75
2022/04/15 12:16:25;;;;;;;12.02;5.30;;;;;;;22.56;37.31;99763.28;5148606;28;20710;-73
2022/04/15 12:19:16;;;;;;;10.90;6.53;;;;;;;22.14;37.91;99769.72;5148601;28;20054;-74
2022/04/15 12:22:07;;;;;;;10.68;7.60;;;;;;;21.76;37.96;99760.16;5162818;28;20050;-74
2022/04/15 12:25:18;;;;;;;9.52;6.53;;;;;;;20.92;38.29;99762.75;5157900;28;20492;-74
2022/04/15 12:29:47;;;;;;;8.93;6.38;;;;;;;21.66;38.24;99769.66;5149648;28;20058;-72
2022/04/15 12:31:39;;;;;;;9.88;6.32;;;;;;;21.98;38.83;99771.72;5149559;28;20073;-71
2022/04/15 12:34:34;;;;;;;12.43;5.80;;;;;;;21.55;42.04;99773.69;5156550;28;20093;-71
2022/04/15 12:37:47;;;;;;;11.20;7.88;;;;;;;21.01;40.59;99763.47;5143334;28;20046;-72
2022/04/15 12:40:38;;;;;;;10.00;7.20;;;;;;;20.78;40.67;99753.69;5145288;28;20534;-73
2022/04/15 12:43:29;;;;;;;13.55;7.80;;;;;;;21.04;41.02;99760.38;5158142;28;20054;-72
2022/04/15 12:46:19;;;;;;;12.02;8.48;;;;;;;21.17;39.83;99754.28;5153516;28;20523;-71
2022/04/15 12:49:27;;;;;;;12.75;8.50;;;;;;;21.14;40.50;99755.50;5156775;28;20180;-72
2022/04/15 12:52:19;;;;;;;12.63;8.35;;;;;;;20.63;41.19;99748.38;5156148;28;20061;-72
2022/04/15 12:55:10;;;;;;;15.63;7.93;;;;;;;21.22;39.82;99757.22;5142160;28;20047;-72
2022/04/15 12:58:03;;;;;;;11.80;7.15;;;;;;;20.25;40.32;99760.28;5157776;28;20050;-73
2022/04/15 13:00:54;;;;;;;9.52;6.03;;;;;;;21.06;39.05;99756.47;5147678;28;20089;-74
2022/04/15 13:03:52;;;;;;;10.75;6.55;;;;;;;20.82;39.24;99719.09;5157527;28;20081;-72
2022/04/15 13:06:43;;;;;;;8.18;5.95;;;;;;;21.17;39.93;99747.03;5161722;28;20145;-72
2022/04/15 13:09:33;;;;;;;12.93;7.35;;;;;;;20.73;40.75;99733.72;5159786;28;20046;-73
2022/04/15 13:12:24;;;;;;;14.85;7.28;;;;;;;21.26;38.52;99736.94;5161361;28;20104;-72
2022/04/15 13:15:14;;;;;;;9.77;7.00;;;;;;;21.41;37.71;99743.09;5145400;28;20057;-72
2022/04/15 13:18:05;;;;;;;11.13;6.70;;;;;;;21.29;38.29;99744.63;5159908;28;20054;-74